Terminal Aerodrome Forecast
Issued by NWS

Home | Current Version | Previous Version | Text Only | Print | Product List | Glossary Off
Versions: 1 2 3 4 5 6 7 8 9 10 11 12 13 14 15 16 17 18 19 20 21 22 23 24 25 26 27 28 29 30 31 32

000
FTUS45 KGGW 241100
TAFOLF
TAF
KOLF 241122Z 2412/2512 VRB04KT P6SM BKN080
     FM242100 27011KT P6SM BKN100
     FM250700 16005KT P6SM OVC050=

USA.gov is the U.S. government's official web portal to all federal, state and local government web resources and services.